sensor_id;sensor_type;location;lat;lon;timestamp;P1;durP1;ratioP1;P2;durP2;ratioP2
46897;SDS011;32646;50.958;6.258;2023-07-29T00:00:48;9.30;;;2.97;;
46897;SDS011;32646;50.958;6.258;2023-07-29T00:03:14;7.00;;;2.95;;
46897;SDS011;32646;50.958;6.258;2023-07-29T00:05:41;6.07;;;2.85;;
46897;SDS011;32646;50.958;6.258;2023-07-29T00:08:07;8.10;;;2.70;;
46897;SDS011;32646;50.958;6.258;2023-07-29T00:10:37;6.45;;;2.88;;
46897;SDS011;32646;50.958;6.258;2023-07-29T00:13:04;4.80;;;2.38;;
46897;SDS011;32646;50.958;6.258;2023-07-29T00:15:32;5.38;;;2.75;;
46897;SDS011;32646;50.958;6.258;2023-07-29T00:17:58;10.73;;;2.50;;
46897;SDS011;32646;50.958;6.258;2023-07-29T00:20:25;6.13;;;2.63;;
46897;SDS011;32646;50.958;6.258;2023-07-29T00:22:52;4.97;;;2.65;;
46897;SDS011;32646;50.958;6.258;2023-07-29T00:25:18;6.88;;;2.70;;
46897;SDS011;32646;50.958;6.258;2023-07-29T00:27:45;11.18;;;2.55;;
46897;SDS011;32646;50.958;6.258;2023-07-29T00:30:12;5.40;;;2.70;;
46897;SDS011;32646;50.958;6.258;2023-07-29T00:32:38;5.47;;;2.45;;
46897;SDS011;32646;50.958;6.258;2023-07-29T00:35:05;6.60;;;2.88;;
46897;SDS011;32646;50.958;6.258;2023-07-29T00:37:32;6.10;;;2.47;;
46897;SDS011;32646;50.958;6.258;2023-07-29T00:39:59;4.93;;;2.33;;
46897;SDS011;32646;50.958;6.258;2023-07-29T00:42:25;4.85;;;2.50;;
46897;SDS011;32646;50.958;6.258;2023-07-29T00:44:52;5.10;;;2.45;;
46897;SDS011;32646;50.958;6.258;2023-07-29T00:47:18;7.70;;;2.50;;
46897;SDS011;32646;50.958;6.258;2023-07-29T00:49:46;6.45;;;2.75;;
46897;SDS011;32646;50.958;6.258;2023-07-29T00:52:12;6.13;;;2.60;;
46897;SDS011;32646;50.958;6.258;2023-07-29T00:54:39;5.15;;;2.70;;
46897;SDS011;32646;50.958;6.258;2023-07-29T00:57:06;5.70;;;2.33;;
46897;SDS011;32646;50.958;6.258;2023-07-29T00:59:36;5.45;;;2.35;;
46897;SDS011;32646;50.958;6.258;2023-07-29T01:02:02;5.80;;;2.53;;
46897;SDS011;32646;50.958;6.258;2023-07-29T01:04:29;5.78;;;2.75;;
46897;SDS011;32646;50.958;6.258;2023-07-29T01:09:51;5.28;;;2.80;;
46897;SDS011;32646;50.958;6.258;2023-07-29T01:12:35;6.05;;;2.38;;
46897;SDS011;32646;50.958;6.258;2023-07-29T01:18:08;7.95;;;2.17;;
46897;SDS011;32646;50.958;6.258;2023-07-29T01:20:40;8.60;;;2.92;;
46897;SDS011;32646;50.958;6.258;2023-07-29T01:23:11;6.53;;;2.55;;
46897;SDS011;32646;50.958;6.258;2023-07-29T01:25:37;4.80;;;2.35;;
46897;SDS011;32646;50.958;6.258;2023-07-29T01:28:04;5.32;;;2.20;;
46897;SDS011;32646;50.958;6.258;2023-07-29T01:30:33;5.88;;;2.42;;
46897;SDS011;32646;50.958;6.258;2023-07-29T01:33:18;5.20;;;2.60;;
46897;SDS011;32646;50.958;6.258;2023-07-29T01:35:52;5.25;;;2.25;;
46897;SDS011;32646;50.958;6.258;2023-07-29T01:38:33;4.80;;;2.20;;
46897;SDS011;32646;50.958;6.258;2023-07-29T01:41:02;5.85;;;2.33;;
46897;SDS011;32646;50.958;6.258;2023-07-29T01:43:30;7.53;;;2.30;;
46897;SDS011;32646;50.958;6.258;2023-07-29T01:45:57;4.70;;;2.30;;
46897;SDS011;32646;50.958;6.258;2023-07-29T01:48:24;5.28;;;2.00;;
46897;SDS011;32646;50.958;6.258;2023-07-29T01:50:50;3.72;;;1.80;;
46897;SDS011;32646;50.958;6.258;2023-07-29T01:53:17;4.35;;;1.77;;
46897;SDS011;32646;50.958;6.258;2023-07-29T01:55:44;5.47;;;2.22;;
46897;SDS011;32646;50.958;6.258;2023-07-29T01:58:11;6.35;;;2.10;;
46897;SDS011;32646;50.958;6.258;2023-07-29T02:00:38;5.40;;;2.25;;
46897;SDS011;32646;50.958;6.258;2023-07-29T02:03:04;3.67;;;1.88;;
46897;SDS011;32646;50.958;6.258;2023-07-29T02:05:31;5.00;;;2.00;;
46897;SDS011;32646;50.958;6.258;2023-07-29T02:07:57;5.40;;;2.53;;
46897;SDS011;32646;50.958;6.258;2023-07-29T02:10:24;4.20;;;2.25;;
46897;SDS011;32646;50.958;6.258;2023-07-29T02:12:51;6.60;;;2.08;;
46897;SDS011;32646;50.958;6.258;2023-07-29T02:15:17;4.93;;;2.35;;
46897;SDS011;32646;50.958;6.258;2023-07-29T02:17:44;4.75;;;2.38;;
46897;SDS011;32646;50.958;6.258;2023-07-29T02:20:10;6.68;;;2.58;;
46897;SDS011;32646;50.958;6.258;2023-07-29T02:22:37;4.50;;;2.30;;
46897;SDS011;32646;50.958;6.258;2023-07-29T02:25:04;7.45;;;2.40;;
46897;SDS011;32646;50.958;6.258;2023-07-29T02:27:31;7.28;;;2.75;;
46897;SDS011;32646;50.958;6.258;2023-07-29T02:29:58;6.82;;;2.60;;
46897;SDS011;32646;50.958;6.258;2023-07-29T02:32:25;5.57;;;2.63;;
46897;SDS011;32646;50.958;6.258;2023-07-29T02:34:51;8.15;;;2.90;;
46897;SDS011;32646;50.958;6.258;2023-07-29T02:37:18;6.03;;;2.72;;
46897;SDS011;32646;50.958;6.258;2023-07-29T02:39:45;8.77;;;2.95;;
46897;SDS011;32646;50.958;6.258;2023-07-29T02:42:12;6.88;;;2.70;;
46897;SDS011;32646;50.958;6.258;2023-07-29T02:44:39;5.82;;;3.00;;
46897;SDS011;32646;50.958;6.258;2023-07-29T02:47:06;5.47;;;2.97;;
46897;SDS011;32646;50.958;6.258;2023-07-29T02:49:33;7.63;;;3.30;;
46897;SDS011;32646;50.958;6.258;2023-07-29T02:51:59;6.82;;;2.88;;
46897;SDS011;32646;50.958;6.258;2023-07-29T02:54:26;6.45;;;3.30;;
46897;SDS011;32646;50.958;6.258;2023-07-29T02:56:53;6.72;;;3.17;;
46897;SDS011;32646;50.958;6.258;2023-07-29T02:59:19;7.28;;;2.60;;
46897;SDS011;32646;50.958;6.258;2023-07-29T03:01:46;6.40;;;2.92;;
46897;SDS011;32646;50.958;6.258;2023-07-29T03:04:12;5.50;;;2.80;;
46897;SDS011;32646;50.958;6.258;2023-07-29T03:06:39;7.75;;;2.78;;
46897;SDS011;32646;50.958;6.258;2023-07-29T03:09:06;6.82;;;4.53;;
46897;SDS011;32646;50.958;6.258;2023-07-29T03:11:33;6.03;;;2.90;;
46897;SDS011;32646;50.958;6.258;2023-07-29T03:14:00;5.15;;;2.92;;
46897;SDS011;32646;50.958;6.258;2023-07-29T03:16:26;6.07;;;3.08;;
46897;SDS011;32646;50.958;6.258;2023-07-29T03:18:53;7.43;;;2.75;;
46897;SDS011;32646;50.958;6.258;2023-07-29T03:21:20;6.82;;;3.30;;
46897;SDS011;32646;50.958;6.258;2023-07-29T03:23:47;6.07;;;2.63;;
46897;SDS011;32646;50.958;6.258;2023-07-29T03:26:13;6.97;;;2.80;;
46897;SDS011;32646;50.958;6.258;2023-07-29T03:28:40;5.13;;;2.53;;
46897;SDS011;32646;50.958;6.258;2023-07-29T03:31:08;5.88;;;3.00;;
46897;SDS011;32646;50.958;6.258;2023-07-29T03:33:35;7.30;;;3.10;;
46897;SDS011;32646;50.958;6.258;2023-07-29T03:36:02;6.57;;;3.03;;
46897;SDS011;32646;50.958;6.258;2023-07-29T03:38:29;7.05;;;2.90;;
46897;SDS011;32646;50.958;6.258;2023-07-29T03:40:56;5.85;;;2.97;;
46897;SDS011;32646;50.958;6.258;2023-07-29T03:43:23;6.57;;;3.10;;
46897;SDS011;32646;50.958;6.258;2023-07-29T03:45:50;5.40;;;2.80;;
46897;SDS011;32646;50.958;6.258;2023-07-29T03:48:16;6.28;;;2.72;;
46897;SDS011;32646;50.958;6.258;2023-07-29T03:50:43;6.53;;;2.95;;
46897;SDS011;32646;50.958;6.258;2023-07-29T03:53:10;7.72;;;3.25;;
46897;SDS011;32646;50.958;6.258;2023-07-29T03:55:36;5.53;;;2.75;;
46897;SDS011;32646;50.958;6.258;2023-07-29T03:58:03;5.22;;;2.47;;
46897;SDS011;32646;50.958;6.258;2023-07-29T04:00:30;6.13;;;2.55;;
46897;SDS011;32646;50.958;6.258;2023-07-29T04:02:56;5.10;;;2.35;;
46897;SDS011;32646;50.958;6.258;2023-07-29T04:05:23;7.38;;;3.20;;
46897;SDS011;32646;50.958;6.258;2023-07-29T04:07:50;6.25;;;2.55;;
46897;SDS011;32646;50.958;6.258;2023-07-29T04:10:17;5.55;;;2.65;;
46897;SDS011;32646;50.958;6.258;2023-07-29T04:12:43;8.52;;;2.55;;
46897;SDS011;32646;50.958;6.258;2023-07-29T04:15:10;6.15;;;2.78;;
46897;SDS011;32646;50.958;6.258;2023-07-29T04:17:37;5.68;;;2.50;;
46897;SDS011;32646;50.958;6.258;2023-07-29T04:20:03;7.32;;;2.65;;
46897;SDS011;32646;50.958;6.258;2023-07-29T04:22:30;5.75;;;2.55;;
46897;SDS011;32646;50.958;6.258;2023-07-29T04:24:57;6.97;;;3.17;;
46897;SDS011;32646;50.958;6.258;2023-07-29T04:27:23;5.15;;;2.63;;
46897;SDS011;32646;50.958;6.258;2023-07-29T04:29:50;4.65;;;2.10;;
46897;SDS011;32646;50.958;6.258;2023-07-29T04:32:17;6.30;;;2.30;;
46897;SDS011;32646;50.958;6.258;2023-07-29T04:34:43;5.20;;;1.95;;
46897;SDS011;32646;50.958;6.258;2023-07-29T04:37:12;6.05;;;1.95;;
46897;SDS011;32646;50.958;6.258;2023-07-29T04:39:45;4.53;;;2.05;;
46897;SDS011;32646;50.958;6.258;2023-07-29T04:42:12;4.65;;;1.98;;
46897;SDS011;32646;50.958;6.258;2023-07-29T04:44:38;5.85;;;1.92;;
46897;SDS011;32646;50.958;6.258;2023-07-29T04:47:05;5.55;;;1.98;;
46897;SDS011;32646;50.958;6.258;2023-07-29T04:49:32;3.65;;;1.67;;
46897;SDS011;32646;50.958;6.258;2023-07-29T04:51:58;3.85;;;1.73;;
46897;SDS011;32646;50.958;6.258;2023-07-29T04:54:25;4.80;;;1.92;;
46897;SDS011;32646;50.958;6.258;2023-07-29T04:56:52;4.78;;;2.10;;
46897;SDS011;32646;50.958;6.258;2023-07-29T04:59:19;4.53;;;1.90;;
46897;SDS011;32646;50.958;6.258;2023-07-29T05:01:46;5.15;;;1.67;;
46897;SDS011;32646;50.958;6.258;2023-07-29T05:04:12;5.03;;;2.38;;
46897;SDS011;32646;50.958;6.258;2023-07-29T05:06:39;4.53;;;2.00;;
46897;SDS011;32646;50.958;6.258;2023-07-29T05:09:13;3.92;;;1.70;;
46897;SDS011;32646;50.958;6.258;2023-07-29T05:11:46;4.35;;;1.65;;
46897;SDS011;32646;50.958;6.258;2023-07-29T05:14:27;5.13;;;1.90;;
46897;SDS011;32646;50.958;6.258;2023-07-29T05:16:56;6.07;;;1.70;;
46897;SDS011;32646;50.958;6.258;2023-07-29T05:19:23;3.85;;;1.70;;
46897;SDS011;32646;50.958;6.258;2023-07-29T05:21:50;6.63;;;2.08;;
46897;SDS011;32646;50.958;6.258;2023-07-29T05:24:16;4.90;;;1.63;;
46897;SDS011;32646;50.958;6.258;2023-07-29T05:26:43;6.30;;;1.83;;
46897;SDS011;32646;50.958;6.258;2023-07-29T05:29:10;4.55;;;1.90;;
46897;SDS011;32646;50.958;6.258;2023-07-29T05:31:36;6.70;;;1.90;;
46897;SDS011;32646;50.958;6.258;2023-07-29T05:34:03;7.20;;;2.05;;
46897;SDS011;32646;50.958;6.258;2023-07-29T05:36:30;4.68;;;1.50;;
46897;SDS011;32646;50.958;6.258;2023-07-29T05:38:56;4.25;;;1.75;;
46897;SDS011;32646;50.958;6.258;2023-07-29T05:41:23;4.20;;;1.77;;
46897;SDS011;32646;50.958;6.258;2023-07-29T05:43:50;4.00;;;1.63;;
46897;SDS011;32646;50.958;6.258;2023-07-29T05:46:17;6.55;;;1.98;;
46897;SDS011;32646;50.958;6.258;2023-07-29T05:48:44;5.10;;;1.88;;
46897;SDS011;32646;50.958;6.258;2023-07-29T05:51:10;5.28;;;2.35;;
46897;SDS011;32646;50.958;6.258;2023-07-29T05:53:37;4.60;;;1.77;;
46897;SDS011;32646;50.958;6.258;2023-07-29T05:56:04;4.18;;;1.52;;
46897;SDS011;32646;50.958;6.258;2023-07-29T05:58:31;4.22;;;1.65;;
46897;SDS011;32646;50.958;6.258;2023-07-29T06:00:58;6.22;;;2.00;;
46897;SDS011;32646;50.958;6.258;2023-07-29T06:03:25;4.13;;;1.50;;
46897;SDS011;32646;50.958;6.258;2023-07-29T06:05:52;4.53;;;1.92;;
46897;SDS011;32646;50.958;6.258;2023-07-29T06:08:20;7.03;;;1.92;;
46897;SDS011;32646;50.958;6.258;2023-07-29T06:10:47;6.15;;;1.73;;
46897;SDS011;32646;50.958;6.258;2023-07-29T06:13:14;7.85;;;2.17;;
46897;SDS011;32646;50.958;6.258;2023-07-29T06:15:40;6.20;;;1.92;;
46897;SDS011;32646;50.958;6.258;2023-07-29T06:18:07;5.07;;;1.83;;
46897;SDS011;32646;50.958;6.258;2023-07-29T06:20:34;4.90;;;1.77;;
46897;SDS011;32646;50.958;6.258;2023-07-29T06:23:00;4.70;;;1.88;;
46897;SDS011;32646;50.958;6.258;2023-07-29T06:25:27;4.53;;;1.80;;
46897;SDS011;32646;50.958;6.258;2023-07-29T06:27:54;5.25;;;1.50;;
46897;SDS011;32646;50.958;6.258;2023-07-29T06:30:21;4.07;;;1.40;;
46897;SDS011;32646;50.958;6.258;2023-07-29T06:32:47;4.32;;;1.33;;
46897;SDS011;32646;50.958;6.258;2023-07-29T06:35:14;4.90;;;1.50;;
46897;SDS011;32646;50.958;6.258;2023-07-29T06:37:41;3.70;;;1.40;;
46897;SDS011;32646;50.958;6.258;2023-07-29T06:40:08;3.08;;;1.20;;
46897;SDS011;32646;50.958;6.258;2023-07-29T06:42:34;3.15;;;1.20;;
46897;SDS011;32646;50.958;6.258;2023-07-29T06:45:01;4.53;;;1.58;;
46897;SDS011;32646;50.958;6.258;2023-07-29T06:47:31;4.43;;;1.58;;
46897;SDS011;32646;50.958;6.258;2023-07-29T06:49:57;6.20;;;1.35;;
46897;SDS011;32646;50.958;6.258;2023-07-29T06:52:24;3.28;;;1.00;;
46897;SDS011;32646;50.958;6.258;2023-07-29T06:54:51;3.40;;;1.45;;
46897;SDS011;32646;50.958;6.258;2023-07-29T06:57:17;3.60;;;1.40;;
46897;SDS011;32646;50.958;6.258;2023-07-29T06:59:44;3.63;;;1.20;;
46897;SDS011;32646;50.958;6.258;2023-07-29T07:02:10;4.93;;;1.20;;
46897;SDS011;32646;50.958;6.258;2023-07-29T07:04:37;2.58;;;1.10;;
46897;SDS011;32646;50.958;6.258;2023-07-29T07:07:04;3.70;;;1.05;;
46897;SDS011;32646;50.958;6.258;2023-07-29T07:09:31;3.35;;;1.30;;
46897;SDS011;32646;50.958;6.258;2023-07-29T07:11:57;3.45;;;1.10;;
46897;SDS011;32646;50.958;6.258;2023-07-29T07:14:24;2.80;;;1.15;;
46897;SDS011;32646;50.958;6.258;2023-07-29T07:16:51;4.13;;;1.20;;
46897;SDS011;32646;50.958;6.258;2023-07-29T07:19:17;2.60;;;1.08;;
46897;SDS011;32646;50.958;6.258;2023-07-29T07:21:44;2.33;;;0.90;;
46897;SDS011;32646;50.958;6.258;2023-07-29T07:24:10;4.05;;;1.10;;
46897;SDS011;32646;50.958;6.258;2023-07-29T07:26:37;3.08;;;1.20;;
46897;SDS011;32646;50.958;6.258;2023-07-29T07:29:05;2.63;;;0.98;;
46897;SDS011;32646;50.958;6.258;2023-07-29T07:31:35;3.50;;;1.30;;
46897;SDS011;32646;50.958;6.258;2023-07-29T07:34:02;4.68;;;1.05;;
46897;SDS011;32646;50.958;6.258;2023-07-29T07:36:29;3.20;;;1.10;;
46897;SDS011;32646;50.958;6.258;2023-07-29T07:38:55;2.72;;;1.05;;
46897;SDS011;32646;50.958;6.258;2023-07-29T07:41:22;2.97;;;1.15;;
46897;SDS011;32646;50.958;6.258;2023-07-29T07:43:54;4.30;;;1.20;;
46897;SDS011;32646;50.958;6.258;2023-07-29T07:46:21;4.28;;;1.10;;
46897;SDS011;32646;50.958;6.258;2023-07-29T07:48:48;4.75;;;1.05;;
46897;SDS011;32646;50.958;6.258;2023-07-29T07:51:15;4.75;;;1.20;;
46897;SDS011;32646;50.958;6.258;2023-07-29T07:53:41;2.67;;;1.10;;
46897;SDS011;32646;50.958;6.258;2023-07-29T07:56:08;3.30;;;0.93;;
46897;SDS011;32646;50.958;6.258;2023-07-29T07:58:34;4.60;;;0.90;;
46897;SDS011;32646;50.958;6.258;2023-07-29T08:01:04;3.47;;;1.10;;
46897;SDS011;32646;50.958;6.258;2023-07-29T08:03:32;3.20;;;0.90;;
46897;SDS011;32646;50.958;6.258;2023-07-29T08:05:59;2.33;;;0.80;;
46897;SDS011;32646;50.958;6.258;2023-07-29T08:08:26;5.10;;;1.00;;
46897;SDS011;32646;50.958;6.258;2023-07-29T08:10:54;4.10;;;1.00;;
46897;SDS011;32646;50.958;6.258;2023-07-29T08:13:24;2.60;;;0.80;;
46897;SDS011;32646;50.958;6.258;2023-07-29T08:15:51;3.05;;;1.00;;
46897;SDS011;32646;50.958;6.258;2023-07-29T08:18:19;2.63;;;0.90;;
46897;SDS011;32646;50.958;6.258;2023-07-29T08:20:55;2.80;;;0.82;;
46897;SDS011;32646;50.958;6.258;2023-07-29T08:23:24;2.15;;;0.85;;
46897;SDS011;32646;50.958;6.258;2023-07-29T08:25:55;2.97;;;0.90;;
46897;SDS011;32646;50.958;6.258;2023-07-29T08:28:30;2.63;;;1.00;;
46897;SDS011;32646;50.958;6.258;2023-07-29T08:31:01;2.70;;;1.05;;
46897;SDS011;32646;50.958;6.258;2023-07-29T08:33:28;3.70;;;0.85;;
46897;SDS011;32646;50.958;6.258;2023-07-29T08:35:55;4.75;;;1.20;;
46897;SDS011;32646;50.958;6.258;2023-07-29T08:38:21;2.63;;;0.93;;
46897;SDS011;32646;50.958;6.258;2023-07-29T08:43:32;2.25;;;0.73;;
46897;SDS011;32646;50.958;6.258;2023-07-29T08:46:00;2.00;;;0.70;;
46897;SDS011;32646;50.958;6.258;2023-07-29T08:48:39;4.47;;;0.90;;
46897;SDS011;32646;50.958;6.258;2023-07-29T08:51:07;2.53;;;0.93;;
46897;SDS011;32646;50.958;6.258;2023-07-29T08:53:35;2.05;;;0.65;;
46897;SDS011;32646;50.958;6.258;2023-07-29T08:56:03;3.60;;;1.05;;
46897;SDS011;32646;50.958;6.258;2023-07-29T08:58:31;2.38;;;0.90;;
46897;SDS011;32646;50.958;6.258;2023-07-29T09:00:58;2.58;;;1.00;;
46897;SDS011;32646;50.958;6.258;2023-07-29T09:03:25;3.83;;;0.98;;
46897;SDS011;32646;50.958;6.258;2023-07-29T09:05:52;2.17;;;0.73;;
46897;SDS011;32646;50.958;6.258;2023-07-29T09:08:21;3.88;;;1.02;;
46897;SDS011;32646;50.958;6.258;2023-07-29T09:10:48;3.40;;;1.00;;
46897;SDS011;32646;50.958;6.258;2023-07-29T09:13:15;1.70;;;0.80;;
46897;SDS011;32646;50.958;6.258;2023-07-29T09:15:42;2.58;;;1.00;;
46897;SDS011;32646;50.958;6.258;2023-07-29T09:18:09;3.42;;;1.00;;
46897;SDS011;32646;50.958;6.258;2023-07-29T09:20:47;2.72;;;1.00;;
46897;SDS011;32646;50.958;6.258;2023-07-29T09:23:15;2.45;;;0.88;;
46897;SDS011;32646;50.958;6.258;2023-07-29T09:25:42;2.75;;;1.00;;
46897;SDS011;32646;50.958;6.258;2023-07-29T09:28:10;3.70;;;1.10;;
46897;SDS011;32646;50.958;6.258;2023-07-29T09:30:42;3.40;;;1.10;;
46897;SDS011;32646;50.958;6.258;2023-07-29T09:33:10;2.50;;;0.90;;
46897;SDS011;32646;50.958;6.258;2023-07-29T09:35:37;2.88;;;0.95;;
46897;SDS011;32646;50.958;6.258;2023-07-29T09:38:05;1.92;;;0.75;;
46897;SDS011;32646;50.958;6.258;2023-07-29T09:40:36;3.17;;;0.88;;
46897;SDS011;32646;50.958;6.258;2023-07-29T09:43:03;2.30;;;0.90;;
46897;SDS011;32646;50.958;6.258;2023-07-29T09:45:32;2.45;;;0.90;;
46897;SDS011;32646;50.958;6.258;2023-07-29T09:48:03;2.17;;;0.80;;
46897;SDS011;32646;50.958;6.258;2023-07-29T09:50:32;1.77;;;0.60;;
46897;SDS011;32646;50.958;6.258;2023-07-29T09:52:58;2.80;;;0.98;;
46897;SDS011;32646;50.958;6.258;2023-07-29T09:55:25;2.35;;;0.68;;
46897;SDS011;32646;50.958;6.258;2023-07-29T09:57:53;2.47;;;0.80;;
46897;SDS011;32646;50.958;6.258;2023-07-29T10:00:23;2.38;;;0.80;;
46897;SDS011;32646;50.958;6.258;2023-07-29T10:02:49;2.60;;;0.80;;
46897;SDS011;32646;50.958;6.258;2023-07-29T10:05:17;1.85;;;0.57;;
46897;SDS011;32646;50.958;6.258;2023-07-29T10:07:44;2.28;;;0.80;;
46897;SDS011;32646;50.958;6.258;2023-07-29T10:10:12;3.58;;;1.00;;
46897;SDS011;32646;50.958;6.258;2023-07-29T10:12:39;2.85;;;0.90;;
46897;SDS011;32646;50.958;6.258;2023-07-29T10:15:06;2.58;;;0.80;;
46897;SDS011;32646;50.958;6.258;2023-07-29T10:17:33;2.80;;;1.00;;
46897;SDS011;32646;50.958;6.258;2023-07-29T10:20:05;2.90;;;0.80;;
46897;SDS011;32646;50.958;6.258;2023-07-29T10:22:40;2.38;;;0.80;;
46897;SDS011;32646;50.958;6.258;2023-07-29T10:25:18;2.50;;;0.80;;
46897;SDS011;32646;50.958;6.258;2023-07-29T10:30:18;2.33;;;0.80;;
46897;SDS011;32646;50.958;6.258;2023-07-29T10:32:48;2.92;;;1.30;;
46897;SDS011;32646;50.958;6.258;2023-07-29T10:35:16;3.03;;;0.77;;
46897;SDS011;32646;50.958;6.258;2023-07-29T10:37:42;2.53;;;0.90;;
46897;SDS011;32646;50.958;6.258;2023-07-29T10:40:10;2.67;;;0.90;;
46897;SDS011;32646;50.958;6.258;2023-07-29T10:42:37;2.60;;;0.90;;
46897;SDS011;32646;50.958;6.258;2023-07-29T10:45:17;2.67;;;0.90;;
46897;SDS011;32646;50.958;6.258;2023-07-29T10:47:47;2.58;;;0.80;;
46897;SDS011;32646;50.958;6.258;2023-07-29T10:50:17;2.40;;;0.70;;
46897;SDS011;32646;50.958;6.258;2023-07-29T10:52:48;3.03;;;0.90;;
46897;SDS011;32646;50.958;6.258;2023-07-29T10:55:34;2.90;;;1.20;;
46897;SDS011;32646;50.958;6.258;2023-07-29T10:58:05;2.22;;;0.80;;
46897;SDS011;32646;50.958;6.258;2023-07-29T11:00:35;2.10;;;0.73;;
46897;SDS011;32646;50.958;6.258;2023-07-29T11:03:03;2.60;;;0.80;;
46897;SDS011;32646;50.958;6.258;2023-07-29T11:08:28;2.28;;;0.93;;
46897;SDS011;32646;50.958;6.258;2023-07-29T11:11:06;2.55;;;0.98;;
46897;SDS011;32646;50.958;6.258;2023-07-29T11:13:35;3.30;;;1.00;;
46897;SDS011;32646;50.958;6.258;2023-07-29T11:16:02;2.30;;;0.90;;
46897;SDS011;32646;50.958;6.258;2023-07-29T11:18:31;3.13;;;0.98;;
46897;SDS011;32646;50.958;6.258;2023-07-29T11:20:59;2.45;;;0.95;;
46897;SDS011;32646;50.958;6.258;2023-07-29T11:23:27;2.25;;;0.80;;
46897;SDS011;32646;50.958;6.258;2023-07-29T11:25:56;2.85;;;0.85;;
46897;SDS011;32646;50.958;6.258;2023-07-29T11:28:23;2.78;;;1.02;;
46897;SDS011;32646;50.958;6.258;2023-07-29T11:30:50;2.53;;;0.98;;
46897;SDS011;32646;50.958;6.258;2023-07-29T11:33:18;2.35;;;0.80;;
46897;SDS011;32646;50.958;6.258;2023-07-29T11:35:48;3.05;;;0.90;;
46897;SDS011;32646;50.958;6.258;2023-07-29T11:38:16;4.03;;;1.20;;
46897;SDS011;32646;50.958;6.258;2023-07-29T11:40:53;4.28;;;1.13;;
46897;SDS011;32646;50.958;6.258;2023-07-29T11:43:21;2.20;;;0.88;;
46897;SDS011;32646;50.958;6.258;2023-07-29T11:45:47;2.28;;;1.00;;
46897;SDS011;32646;50.958;6.258;2023-07-29T11:48:18;2.25;;;0.90;;
46897;SDS011;32646;50.958;6.258;2023-07-29T11:50:45;2.85;;;1.02;;
46897;SDS011;32646;50.958;6.258;2023-07-29T11:53:12;2.65;;;1.02;;
46897;SDS011;32646;50.958;6.258;2023-07-29T11:55:42;4.38;;;1.02;;
46897;SDS011;32646;50.958;6.258;2023-07-29T11:58:08;3.10;;;1.10;;
46897;SDS011;32646;50.958;6.258;2023-07-29T12:00:36;3.00;;;1.15;;
46897;SDS011;32646;50.958;6.258;2023-07-29T12:03:04;3.00;;;0.90;;
46897;SDS011;32646;50.958;6.258;2023-07-29T12:05:31;2.45;;;0.80;;
46897;SDS011;32646;50.958;6.258;2023-07-29T12:07:57;3.72;;;1.20;;
46897;SDS011;32646;50.958;6.258;2023-07-29T12:10:25;3.47;;;1.23;;
46897;SDS011;32646;50.958;6.258;2023-07-29T12:12:52;2.88;;;0.98;;
46897;SDS011;32646;50.958;6.258;2023-07-29T12:15:22;4.38;;;1.20;;
46897;SDS011;32646;50.958;6.258;2023-07-29T12:17:52;3.17;;;1.13;;
46897;SDS011;32646;50.958;6.258;2023-07-29T12:20:20;2.35;;;0.90;;
46897;SDS011;32646;50.958;6.258;2023-07-29T12:22:51;2.38;;;0.82;;
46897;SDS011;32646;50.958;6.258;2023-07-29T12:25:21;3.33;;;1.10;;
46897;SDS011;32646;50.958;6.258;2023-07-29T12:27:48;3.00;;;1.02;;
46897;SDS011;32646;50.958;6.258;2023-07-29T12:30:15;2.67;;;1.10;;
46897;SDS011;32646;50.958;6.258;2023-07-29T12:32:45;2.85;;;1.05;;
46897;SDS011;32646;50.958;6.258;2023-07-29T12:35:12;4.10;;;1.20;;
46897;SDS011;32646;50.958;6.258;2023-07-29T12:37:39;3.78;;;1.20;;
46897;SDS011;32646;50.958;6.258;2023-07-29T12:40:06;3.13;;;1.00;;
46897;SDS011;32646;50.958;6.258;2023-07-29T12:42:33;3.10;;;1.20;;
46897;SDS011;32646;50.958;6.258;2023-07-29T12:45:00;3.30;;;1.00;;
46897;SDS011;32646;50.958;6.258;2023-07-29T12:47:26;3.60;;;1.10;;
46897;SDS011;32646;50.958;6.258;2023-07-29T12:49:53;4.68;;;1.00;;
46897;SDS011;32646;50.958;6.258;2023-07-29T12:52:19;3.20;;;1.08;;
46897;SDS011;32646;50.958;6.258;2023-07-29T12:54:46;3.17;;;1.05;;
46897;SDS011;32646;50.958;6.258;2023-07-29T12:57:12;3.15;;;1.05;;
46897;SDS011;32646;50.958;6.258;2023-07-29T12:59:39;2.63;;;1.17;;
46897;SDS011;32646;50.958;6.258;2023-07-29T13:02:06;2.85;;;0.98;;
46897;SDS011;32646;50.958;6.258;2023-07-29T13:04:33;3.10;;;1.15;;
46897;SDS011;32646;50.958;6.258;2023-07-29T13:07:00;3.33;;;1.23;;
46897;SDS011;32646;50.958;6.258;2023-07-29T13:09:26;2.60;;;1.13;;
46897;SDS011;32646;50.958;6.258;2023-07-29T13:11:53;3.00;;;1.00;;
46897;SDS011;32646;50.958;6.258;2023-07-29T13:14:19;4.07;;;1.30;;
46897;SDS011;32646;50.958;6.258;2023-07-29T13:16:46;4.07;;;1.30;;
46897;SDS011;32646;50.958;6.258;2023-07-29T13:19:12;3.97;;;1.38;;
46897;SDS011;32646;50.958;6.258;2023-07-29T13:21:39;3.45;;;1.20;;
46897;SDS011;32646;50.958;6.258;2023-07-29T13:24:06;3.15;;;1.05;;
46897;SDS011;32646;50.958;6.258;2023-07-29T13:26:32;3.88;;;1.05;;
46897;SDS011;32646;50.958;6.258;2023-07-29T13:28:59;3.60;;;1.50;;
46897;SDS011;32646;50.958;6.258;2023-07-29T13:31:26;3.20;;;1.20;;
46897;SDS011;32646;50.958;6.258;2023-07-29T13:33:52;6.57;;;1.70;;
46897;SDS011;32646;50.958;6.258;2023-07-29T13:36:19;3.40;;;1.40;;
46897;SDS011;32646;50.958;6.258;2023-07-29T13:38:46;3.50;;;1.27;;
46897;SDS011;32646;50.958;6.258;2023-07-29T13:41:12;3.63;;;1.33;;
46897;SDS011;32646;50.958;6.258;2023-07-29T13:43:39;4.15;;;1.58;;
46897;SDS011;32646;50.958;6.258;2023-07-29T13:46:05;4.10;;;1.20;;
46897;SDS011;32646;50.958;6.258;2023-07-29T13:48:32;3.30;;;1.13;;
46897;SDS011;32646;50.958;6.258;2023-07-29T13:50:58;2.90;;;1.20;;
46897;SDS011;32646;50.958;6.258;2023-07-29T13:53:25;3.45;;;1.20;;
46897;SDS011;32646;50.958;6.258;2023-07-29T13:55:52;2.92;;;1.20;;
46897;SDS011;32646;50.958;6.258;2023-07-29T13:58:18;2.90;;;1.20;;
46897;SDS011;32646;50.958;6.258;2023-07-29T14:00:45;3.75;;;1.00;;
46897;SDS011;32646;50.958;6.258;2023-07-29T14:03:11;2.47;;;0.88;;
46897;SDS011;32646;50.958;6.258;2023-07-29T14:05:38;3.30;;;1.20;;
46897;SDS011;32646;50.958;6.258;2023-07-29T14:08:05;3.00;;;1.23;;
46897;SDS011;32646;50.958;6.258;2023-07-29T14:10:31;2.97;;;0.95;;
46897;SDS011;32646;50.958;6.258;2023-07-29T14:12:58;2.80;;;1.02;;
46897;SDS011;32646;50.958;6.258;2023-07-29T14:15:24;2.95;;;0.90;;
46897;SDS011;32646;50.958;6.258;2023-07-29T14:17:51;2.83;;;0.90;;
46897;SDS011;32646;50.958;6.258;2023-07-29T14:20:17;4.10;;;0.90;;
46897;SDS011;32646;50.958;6.258;2023-07-29T14:22:47;2.10;;;0.70;;
46897;SDS011;32646;50.958;6.258;2023-07-29T14:25:14;2.70;;;0.80;;
46897;SDS011;32646;50.958;6.258;2023-07-29T14:27:40;2.50;;;0.90;;
46897;SDS011;32646;50.958;6.258;2023-07-29T14:30:07;2.80;;;1.10;;
46897;SDS011;32646;50.958;6.258;2023-07-29T14:32:34;2.65;;;0.95;;
46897;SDS011;32646;50.958;6.258;2023-07-29T14:35:00;3.40;;;1.20;;
46897;SDS011;32646;50.958;6.258;2023-07-29T14:37:27;3.80;;;0.98;;
46897;SDS011;32646;50.958;6.258;2023-07-29T14:39:54;3.00;;;1.00;;
46897;SDS011;32646;50.958;6.258;2023-07-29T14:42:20;3.38;;;1.08;;
46897;SDS011;32646;50.958;6.258;2023-07-29T14:44:47;2.65;;;0.80;;
46897;SDS011;32646;50.958;6.258;2023-07-29T14:47:13;3.13;;;1.10;;
46897;SDS011;32646;50.958;6.258;2023-07-29T14:49:40;2.30;;;0.77;;
46897;SDS011;32646;50.958;6.258;2023-07-29T14:52:07;3.00;;;0.82;;
46897;SDS011;32646;50.958;6.258;2023-07-29T14:54:33;2.90;;;1.05;;
46897;SDS011;32646;50.958;6.258;2023-07-29T14:57:00;2.20;;;0.80;;
46897;SDS011;32646;50.958;6.258;2023-07-29T14:59:26;2.83;;;1.45;;
46897;SDS011;32646;50.958;6.258;2023-07-29T15:01:53;2.90;;;0.90;;
46897;SDS011;32646;50.958;6.258;2023-07-29T15:04:20;2.85;;;1.02;;